createdAt,value
2018-08-10T00:00:44.049Z,9.37
2018-08-10T00:03:14.445Z,9.38
2018-08-10T00:05:44.848Z,13.30
2018-08-10T00:08:15.172Z,10.72
2018-08-10T00:10:45.157Z,8.43
2018-08-10T00:13:15.845Z,10.06
2018-08-10T00:15:46.381Z,8.40
2018-08-10T00:18:17.349Z,8.48
2018-08-10T00:20:48.276Z,8.10
2018-08-10T00:23:19.510Z,7.67
2018-08-10T00:25:50.394Z,8.65
2018-08-10T00:28:21.414Z,9.00
2018-08-10T00:30:52.256Z,7.78
2018-08-10T00:33:23.649Z,7.85
2018-08-10T00:35:54.333Z,8.23
2018-08-10T00:38:25.400Z,7.70
2018-08-10T00:40:56.247Z,8.80
2018-08-10T00:43:28.102Z,9.24
2018-08-10T00:45:59.005Z,7.85
2018-08-10T00:48:29.700Z,7.85
2018-08-10T00:51:00.314Z,8.50
2018-08-10T00:53:31.346Z,7.75
2018-08-10T00:56:02.236Z,8.83
2018-08-10T00:58:33.601Z,6.96
2018-08-10T01:01:04.403Z,8.18
2018-08-10T01:03:36.293Z,9.73
2018-08-10T01:06:06.890Z,8.10
2018-08-10T01:08:37.614Z,7.60
2018-08-10T01:11:08.509Z,7.22
2018-08-10T01:13:39.654Z,7.95
2018-08-10T01:16:10.666Z,7.75
2018-08-10T01:18:41.442Z,8.05
2018-08-10T01:21:12.817Z,8.28
2018-08-10T01:23:43.748Z,7.35
2018-08-10T01:26:14.484Z,10.03
2018-08-10T01:28:45.496Z,6.90
2018-08-10T01:31:17.217Z,8.16
2018-08-10T01:33:47.718Z,7.34
2018-08-10T01:36:18.418Z,7.72
2018-08-10T01:38:49.426Z,7.60
2018-08-10T01:41:20.293Z,9.33
2018-08-10T01:43:51.271Z,7.90
2018-08-10T01:46:22.549Z,9.06
2018-08-10T01:48:57.526Z,7.70
2018-08-10T01:51:27.936Z,7.90
2018-08-10T01:53:58.503Z,7.92
2018-08-10T01:56:28.415Z,9.90
2018-08-10T01:58:58.347Z,8.40
2018-08-10T02:01:28.295Z,8.65
2018-08-10T02:03:59.588Z,8.84
2018-08-10T02:06:30.423Z,12.90
2018-08-10T02:09:01.296Z,9.28
2018-08-10T02:11:32.334Z,8.00
2018-08-10T02:14:03.304Z,9.10
2018-08-10T02:16:34.791Z,12.62
2018-08-10T02:19:05.450Z,9.55
2018-08-10T02:21:36.512Z,11.28
2018-08-10T02:24:07.317Z,7.95
2018-08-10T02:26:38.516Z,8.85
2018-08-10T02:29:09.374Z,9.00
2018-08-10T02:31:40.061Z,11.48
2018-08-10T02:34:10.613Z,9.25
2018-08-10T02:36:41.480Z,9.68
2018-08-10T02:39:13.293Z,9.08
2018-08-10T02:41:43.713Z,11.30
2018-08-10T02:44:14.286Z,9.93
2018-08-10T02:46:45.119Z,9.60
2018-08-10T02:49:16.048Z,9.78
2018-08-10T02:51:47.183Z,9.75
2018-08-10T02:54:18.090Z,9.35
2018-08-10T02:56:49.804Z,9.62
2018-08-10T02:59:20.351Z,10.00
2018-08-10T03:01:51.158Z,9.75
2018-08-10T03:04:22.030Z,9.53
2018-08-10T03:06:53.461Z,8.98
2018-08-10T03:09:24.025Z,10.05
2018-08-10T03:11:55.476Z,7.34
2018-08-10T03:14:26.050Z,6.15
2018-08-10T03:16:57.563Z,11.00
2018-08-10T03:19:30.305Z,10.32
2018-08-10T03:22:00.446Z,6.75
2018-08-10T03:24:30.510Z,5.83
2018-08-10T03:27:01.522Z,9.28
2018-08-10T03:29:32.118Z,8.13
2018-08-10T03:32:02.882Z,9.60
2018-08-10T03:34:33.764Z,8.86
2018-08-10T03:37:04.560Z,9.10
2018-08-10T03:39:35.130Z,6.97
2018-08-10T03:42:06.533Z,7.05
2018-08-10T03:44:37.081Z,10.25
2018-08-10T03:47:08.168Z,8.13
2018-08-10T03:49:39.066Z,8.95
2018-08-10T03:52:10.173Z,6.50
2018-08-10T03:54:41.269Z,10.78
2018-08-10T03:57:12.722Z,9.60
2018-08-10T03:59:43.209Z,7.53
2018-08-10T04:02:14.104Z,9.90
2018-08-10T04:04:45.400Z,6.03
2018-08-10T04:07:16.124Z,8.85
2018-08-10T04:09:47.020Z,9.18
2018-08-10T04:12:18.412Z,10.20
2018-08-10T04:14:49.033Z,8.55
2018-08-10T04:17:25.374Z,7.08
2018-08-10T04:19:56.141Z,5.10
2018-08-10T04:22:26.797Z,8.43
2018-08-10T04:24:56.676Z,12.60
2018-08-10T04:27:27.236Z,4.28
2018-08-10T04:29:57.078Z,6.67
2018-08-10T04:32:27.589Z,5.63
2018-08-10T04:34:57.453Z,6.80
2018-08-10T04:37:28.387Z,7.97
2018-08-10T04:39:59.497Z,5.83
2018-08-10T04:42:30.040Z,8.60
2018-08-10T04:45:01.413Z,6.48
2018-08-10T04:47:32.032Z,5.45
2018-08-10T04:50:03.061Z,4.42
2018-08-10T04:52:34.377Z,4.60
2018-08-10T04:55:05.283Z,4.42
2018-08-10T04:57:37.066Z,2.85
2018-08-10T05:00:09.113Z,4.30
2018-08-10T05:02:39.274Z,8.90
2018-08-10T05:05:10.284Z,7.53
2018-08-10T05:07:41.066Z,4.70
2018-08-10T05:10:11.381Z,4.50
2018-08-10T05:12:42.166Z,5.97
2018-08-10T05:15:13.604Z,4.12
2018-08-10T05:17:44.084Z,6.08
2018-08-10T05:20:15.104Z,4.70
2018-08-10T05:22:45.993Z,5.67
2018-08-10T05:25:17.421Z,4.14
2018-08-10T05:27:48.315Z,7.85
2018-08-10T05:30:19.146Z,7.22
2018-08-10T05:32:50.138Z,6.85
2018-08-10T05:35:21.176Z,7.83
2018-08-10T05:37:52.056Z,5.65
2018-08-10T05:40:23.195Z,6.58
2018-08-10T05:42:54.010Z,4.83
2018-08-10T05:45:24.996Z,3.90
2018-08-10T05:47:56.254Z,4.33
2018-08-10T05:50:26.957Z,5.12
2018-08-10T05:52:58.349Z,7.26
2018-08-10T05:55:28.978Z,5.47
2018-08-10T05:58:00.954Z,4.50
2018-08-10T06:00:31.510Z,12.46
2018-08-10T06:03:02.501Z,3.87
2018-08-10T06:05:33.079Z,6.03
2018-08-10T06:08:04.468Z,5.10
2018-08-10T06:10:35.021Z,7.08
2018-08-10T06:13:06.776Z,5.18
2018-08-10T06:15:36.902Z,4.25
2018-08-10T06:18:08.384Z,4.37
2018-08-10T06:20:39.915Z,5.00
2018-08-10T06:23:10.660Z,7.08
2018-08-10T06:25:41.386Z,2.58
2018-08-10T06:28:12.372Z,4.50
2018-08-10T06:30:46.756Z,4.83
2018-08-10T06:33:17.313Z,6.18
2018-08-10T06:35:47.324Z,4.50
2018-08-10T06:38:17.844Z,2.83
2018-08-10T06:40:47.758Z,3.70
2018-08-10T06:43:18.385Z,4.80
2018-08-10T06:45:49.034Z,2.25
2018-08-10T06:48:19.520Z,3.90
2018-08-10T06:50:50.378Z,5.45
2018-08-10T06:53:21.134Z,3.87
2018-08-10T06:55:52.351Z,3.60
2018-08-10T06:58:23.326Z,5.20
2018-08-10T07:00:55.670Z,3.62
2018-08-10T07:03:25.760Z,7.87
2018-08-10T07:05:56.746Z,3.37
2018-08-10T07:08:27.246Z,6.45
2018-08-10T07:10:58.153Z,2.12
2018-08-10T07:13:29.201Z,5.33
2018-08-10T07:16:00.085Z,7.00
2018-08-10T07:18:31.095Z,3.72
2018-08-10T07:21:02.317Z,4.08
2018-08-10T07:23:32.988Z,4.33
2018-08-10T07:26:04.386Z,6.24
2018-08-10T07:28:35.227Z,9.18
2018-08-10T07:31:06.111Z,5.35
2018-08-10T07:33:37.574Z,8.10
2018-08-10T07:36:08.290Z,4.28
2018-08-10T07:38:39.092Z,4.67
2018-08-10T07:41:10.237Z,7.53
2018-08-10T07:43:41.919Z,5.97
2018-08-10T07:46:12.636Z,5.46
2018-08-10T07:48:43.315Z,6.17
2018-08-10T07:51:14.302Z,6.50
2018-08-10T07:53:45.158Z,5.55
2018-08-10T07:56:16.789Z,5.12
2018-08-10T07:58:47.364Z,5.83
2018-08-10T08:01:18.455Z,2.70
2018-08-10T08:03:49.006Z,4.17
2018-08-10T08:06:20.090Z,4.53
2018-08-10T08:08:51.260Z,2.45
2018-08-10T08:11:22.069Z,3.60
2018-08-10T08:13:53.021Z,3.80
2018-08-10T08:16:24.989Z,2.82
2018-08-10T08:18:55.297Z,3.90
2018-08-10T08:21:26.690Z,3.80
2018-08-10T08:23:57.756Z,6.08
2018-08-10T08:26:28.368Z,5.67
2018-08-10T08:28:59.438Z,4.60
2018-08-10T08:31:29.997Z,4.48
2018-08-10T08:34:09.553Z,4.70
2018-08-10T08:36:42.396Z,4.13
2018-08-10T08:39:29.188Z,5.72
2018-08-10T08:41:59.103Z,3.00
2018-08-10T08:44:39.342Z,2.37
2018-08-10T08:47:10.477Z,4.57
2018-08-10T08:49:40.526Z,3.13
2018-08-10T08:52:10.704Z,2.83
2018-08-10T08:55:56.721Z,1.47
2018-08-10T08:58:27.358Z,4.20
2018-08-10T09:00:57.625Z,3.25
2018-08-10T09:03:38.517Z,3.37
2018-08-10T09:06:09.689Z,2.60
2018-08-10T09:08:40.069Z,1.60
2018-08-10T09:11:09.894Z,1.63
2018-08-10T09:14:54.609Z,1.83
2018-08-10T09:17:25.487Z,3.37
2018-08-10T09:19:56.124Z,5.33
2018-08-10T09:22:26.071Z,2.27
2018-08-10T09:24:56.515Z,2.20
2018-08-10T09:27:26.612Z,10.30
2018-08-10T09:29:56.807Z,6.23
2018-08-10T09:32:27.128Z,3.87
2018-08-10T09:34:57.004Z,4.57
2018-08-10T09:37:27.093Z,5.00
2018-08-10T09:39:56.962Z,2.43
2018-08-10T09:42:26.880Z,8.20
2018-08-10T09:44:57.176Z,2.10
2018-08-10T09:47:27.296Z,2.93
2018-08-10T09:49:57.215Z,2.10
2018-08-10T09:52:27.058Z,4.40
2018-08-10T09:55:33.070Z,2.93
2018-08-10T09:58:04.858Z,6.20
2018-08-10T10:00:39.913Z,4.10
2018-08-10T10:03:15.771Z,3.07
2018-08-10T10:05:46.604Z,2.07
2018-08-10T10:08:17.440Z,3.83
2018-08-10T10:10:48.565Z,4.72
2018-08-10T10:13:19.075Z,1.53
2018-08-10T10:15:49.556Z,6.53
2018-08-10T10:18:20.194Z,3.00
2018-08-10T10:20:50.484Z,3.17
2018-08-10T10:23:20.525Z,2.97
2018-08-10T10:25:50.627Z,2.97
2018-08-10T10:28:20.517Z,4.57
2018-08-10T10:30:50.738Z,1.93
2018-08-10T10:33:20.697Z,3.73
2018-08-10T10:35:50.533Z,3.10
2018-08-10T10:38:20.804Z,3.73
2018-08-10T10:40:53.198Z,1.93
2018-08-10T10:43:23.212Z,3.43
2018-08-10T10:45:53.177Z,3.67
2018-08-10T10:48:23.386Z,2.63
2018-08-10T10:50:53.752Z,2.75
2018-08-10T10:53:23.914Z,2.20
2018-08-10T10:55:54.177Z,1.53
2018-08-10T10:58:24.421Z,2.33
2018-08-10T11:00:54.666Z,1.82
2018-08-10T11:03:24.549Z,1.40
2018-08-10T11:05:54.866Z,3.13
2018-08-10T11:08:25.002Z,2.83
2018-08-10T11:10:54.797Z,2.73
2018-08-10T11:13:24.837Z,3.10
2018-08-10T11:15:54.813Z,2.80
2018-08-10T11:18:24.667Z,1.70
2018-08-10T11:20:54.545Z,2.30
2018-08-10T11:23:24.553Z,1.63
2018-08-10T11:25:54.883Z,3.63
2018-08-10T11:28:24.889Z,4.67
2018-08-10T11:30:54.906Z,1.10
2018-08-10T11:33:24.934Z,1.30
2018-08-10T11:35:54.702Z,1.33
2018-08-10T11:38:25.266Z,2.10
2018-08-10T11:40:55.060Z,1.97
2018-08-10T11:43:24.923Z,0.80
2018-08-10T11:45:54.696Z,1.53
2018-08-10T11:48:24.562Z,1.00
2018-08-10T11:50:54.607Z,2.07
2018-08-10T11:53:24.559Z,1.37
2018-08-10T11:55:54.662Z,2.80
2018-08-10T11:58:24.918Z,1.20
2018-08-10T12:00:54.900Z,1.97
2018-08-10T12:03:24.818Z,2.67
2018-08-10T12:05:55.387Z,3.23
2018-08-10T12:08:25.702Z,0.93
2018-08-10T12:10:55.792Z,5.27
2018-08-10T12:13:25.800Z,4.90
2018-08-10T12:15:55.786Z,1.50
2018-08-10T12:18:25.620Z,1.80
2018-08-10T12:20:55.542Z,1.70
2018-08-10T12:23:25.614Z,1.27
2018-08-10T12:25:55.626Z,3.03
2018-08-10T12:28:26.186Z,1.27
2018-08-10T12:30:57.625Z,1.20
2018-08-10T12:33:27.792Z,1.73
2018-08-10T12:35:58.461Z,1.97
2018-08-10T12:38:28.788Z,1.40
2018-08-10T12:40:59.164Z,1.70
2018-08-10T12:43:28.977Z,2.27
2018-08-10T12:45:58.987Z,3.00
2018-08-10T12:48:28.989Z,1.67
2018-08-10T12:50:59.460Z,5.37
2018-08-10T12:53:29.665Z,1.73
2018-08-10T12:56:00.438Z,3.70
2018-08-10T12:58:31.528Z,1.40
2018-08-10T13:01:01.927Z,4.40
2018-08-10T13:03:32.503Z,5.80
2018-08-10T13:06:03.221Z,4.22
2018-08-10T13:08:33.881Z,2.20
2018-08-10T13:11:03.829Z,3.67
2018-08-10T13:14:18.173Z,2.57
2018-08-10T13:16:48.116Z,2.60
2018-08-10T13:19:19.038Z,4.63
2018-08-10T13:21:51.681Z,3.40
2018-08-10T13:24:22.498Z,4.17
2018-08-10T13:26:53.564Z,4.70
2018-08-10T13:29:23.763Z,4.23
2018-08-10T13:31:54.273Z,3.13
2018-08-10T13:34:24.934Z,4.30
2018-08-10T13:36:54.897Z,6.13
2018-08-10T13:39:24.978Z,3.43
2018-08-10T13:41:55.110Z,4.27
2018-08-10T13:44:24.938Z,5.03
2018-08-10T13:46:55.226Z,3.80
2018-08-10T13:49:25.740Z,4.67
2018-08-10T13:51:56.278Z,4.07
2018-08-10T13:54:26.198Z,4.47
2018-08-10T13:56:56.035Z,3.73
2018-08-10T13:59:26.025Z,4.37
2018-08-10T14:01:55.935Z,5.20
2018-08-10T14:04:26.275Z,4.23
2018-08-10T14:06:56.183Z,3.47
2018-08-10T14:09:26.128Z,5.97
2018-08-10T14:11:56.369Z,4.40
2018-08-10T14:14:26.859Z,3.13
2018-08-10T14:17:00.733Z,3.63
2018-08-10T14:19:30.837Z,3.93
2018-08-10T14:22:01.388Z,2.53
2018-08-10T14:24:41.408Z,3.73
2018-08-10T14:27:12.258Z,2.40
2018-08-10T14:29:42.462Z,3.20
2018-08-10T14:32:12.385Z,4.77
2018-08-10T14:34:42.645Z,3.90
2018-08-10T14:37:12.783Z,5.80
2018-08-10T14:39:42.815Z,3.70
2018-08-10T14:42:13.025Z,5.13
2018-08-10T14:44:43.148Z,3.93
2018-08-10T14:47:13.159Z,4.57
2018-08-10T14:49:43.568Z,8.73
2018-08-10T14:52:13.669Z,2.07
2018-08-10T14:54:43.933Z,7.03
2018-08-10T14:57:13.920Z,2.30
2018-08-10T14:59:43.890Z,6.40
2018-08-10T15:02:13.896Z,2.30
2018-08-10T15:04:44.056Z,7.37
2018-08-10T15:07:14.212Z,2.93
2018-08-10T15:09:44.159Z,6.03
2018-08-10T15:12:14.306Z,2.30
2018-08-10T15:14:44.965Z,2.58
2018-08-10T15:17:14.990Z,3.40
2018-08-10T15:19:45.349Z,2.03
2018-08-10T15:22:15.766Z,3.30
2018-08-10T15:24:45.764Z,2.87
2018-08-10T15:27:17.999Z,2.57
2018-08-10T15:29:48.017Z,5.03
2018-08-10T15:32:18.230Z,2.90
2018-08-10T15:34:48.757Z,4.65
2018-08-10T15:37:18.829Z,1.73
2018-08-10T15:39:48.729Z,1.40
2018-08-10T15:42:18.678Z,2.90
2018-08-10T15:44:48.672Z,3.77
2018-08-10T15:47:18.586Z,1.20
2018-08-10T15:49:48.673Z,2.57
2018-08-10T15:52:18.833Z,2.23
2018-08-10T15:54:48.661Z,1.33
2018-08-10T15:57:18.787Z,4.70
2018-08-10T15:59:48.753Z,2.13
2018-08-10T16:02:18.864Z,4.53
2018-08-10T16:04:48.843Z,3.57
2018-08-10T16:07:18.731Z,1.80
2018-08-10T16:09:48.770Z,2.03
2018-08-10T16:12:18.584Z,5.40
2018-08-10T16:14:48.656Z,2.47
2018-08-10T16:17:18.774Z,3.33
2018-08-10T16:19:49.045Z,2.35
2018-08-10T16:22:19.385Z,2.58
2018-08-10T16:24:49.278Z,2.87
2018-08-10T16:27:19.144Z,3.10
2018-08-10T16:29:49.038Z,4.47
2018-08-10T16:32:19.736Z,1.23
2018-08-10T16:34:49.608Z,2.33
2018-08-10T16:37:20.142Z,2.00
2018-08-10T16:39:50.181Z,3.23
2018-08-10T16:42:20.164Z,4.73
2018-08-10T16:44:50.136Z,2.37
2018-08-10T16:47:20.148Z,3.43
2018-08-10T16:49:49.966Z,1.20
2018-08-10T16:52:19.756Z,1.40
2018-08-10T16:54:49.937Z,3.52
2018-08-10T16:57:19.890Z,3.93
2018-08-10T16:59:49.641Z,4.43
2018-08-10T17:02:20.175Z,1.25
2018-08-10T17:04:50.933Z,2.15
2018-08-10T17:07:22.340Z,2.48
2018-08-10T17:09:53.011Z,4.95
2018-08-10T17:12:24.571Z,1.40
2018-08-10T17:14:55.021Z,2.17
2018-08-10T17:17:26.343Z,0.94
2018-08-10T17:19:57.097Z,3.02
2018-08-10T17:22:28.077Z,2.40
2018-08-10T17:24:58.892Z,2.25
2018-08-10T17:27:30.828Z,3.14
2018-08-10T17:30:01.240Z,1.30
2018-08-10T17:32:32.225Z,1.87
2018-08-10T17:35:03.006Z,1.15
2018-08-10T17:37:34.192Z,3.00
2018-08-10T17:40:06.512Z,1.67
2018-08-10T17:42:36.578Z,0.87
2018-08-10T17:45:12.130Z,1.30
2018-08-10T17:47:42.133Z,2.60
2018-08-10T17:50:16.888Z,1.97
2018-08-10T17:52:48.503Z,3.07
2018-08-10T17:55:19.040Z,4.87
2018-08-10T17:57:49.713Z,3.17
2018-08-10T18:00:22.148Z,2.27
2018-08-10T18:02:52.265Z,7.93
2018-08-10T18:05:22.714Z,1.50
2018-08-10T18:07:52.710Z,8.60
2018-08-10T18:10:22.904Z,2.70
2018-08-10T18:12:52.844Z,1.57
2018-08-10T18:15:22.797Z,3.70
2018-08-10T18:17:52.852Z,0.82
2018-08-10T18:20:23.804Z,1.47
2018-08-10T18:22:54.008Z,0.87
2018-08-10T18:25:24.367Z,1.40
2018-08-10T18:27:54.260Z,1.00
2018-08-10T18:30:26.343Z,2.20
2018-08-10T18:32:56.280Z,2.40
2018-08-10T18:35:27.228Z,2.00
2018-08-10T18:37:58.545Z,2.37
2018-08-10T18:40:29.554Z,1.10
2018-08-10T18:43:00.118Z,1.85
2018-08-10T18:45:31.036Z,1.72
2018-08-10T18:48:02.014Z,1.25
2018-08-10T18:50:33.593Z,1.76
2018-08-10T18:53:04.300Z,4.08
2018-08-10T18:55:35.135Z,4.50
2018-08-10T18:58:06.108Z,2.45
2018-08-10T19:00:37.163Z,1.52
2018-08-10T19:03:09.249Z,2.37
2018-08-10T19:05:39.449Z,1.17
2018-08-10T19:08:10.021Z,1.15
2018-08-10T19:10:41.231Z,1.30
2018-08-10T19:13:12.123Z,1.82
2018-08-10T19:15:43.179Z,4.50
2018-08-10T19:18:13.896Z,3.33
2018-08-10T19:20:45.924Z,2.44
2018-08-10T19:23:16.831Z,1.40
2018-08-10T19:25:47.387Z,2.50
2018-08-10T19:28:17.992Z,3.55
2018-08-10T19:30:49.824Z,5.14
2018-08-10T19:33:20.481Z,3.25
2018-08-10T19:35:54.826Z,2.40
2018-08-10T19:38:24.788Z,1.35
2018-08-10T19:40:55.513Z,1.70
2018-08-10T19:43:25.847Z,6.55
2018-08-10T19:45:55.795Z,3.57
2018-08-10T19:48:26.418Z,3.52
2018-08-10T19:50:57.246Z,1.50
2018-08-10T19:53:28.314Z,1.40
2018-08-10T19:55:58.952Z,1.85
2018-08-10T19:58:30.574Z,3.22
2018-08-10T20:01:01.427Z,1.67
2018-08-10T20:03:32.412Z,2.98
2018-08-10T20:06:03.238Z,2.05
2018-08-10T20:08:34.069Z,2.42
2018-08-10T20:11:04.956Z,2.25
2018-08-10T20:13:36.493Z,2.94
2018-08-10T20:16:07.308Z,2.12
2018-08-10T20:18:38.120Z,1.50
2018-08-10T20:21:09.157Z,1.42
2018-08-10T20:23:40.453Z,1.82
2018-08-10T20:26:11.281Z,2.58
2018-08-10T20:28:42.226Z,4.22
2018-08-10T20:31:13.095Z,1.22
2018-08-10T20:33:44.464Z,2.08
2018-08-10T20:36:16.406Z,1.10
2018-08-10T20:38:46.445Z,1.60
2018-08-10T20:41:17.430Z,1.75
2018-08-10T20:43:49.315Z,1.15
2018-08-10T20:46:19.565Z,1.40
2018-08-10T20:48:50.557Z,1.40
2018-08-10T20:51:21.072Z,2.65
2018-08-10T20:53:52.126Z,1.60
2018-08-10T20:56:23.333Z,2.83
2018-08-10T20:58:54.172Z,2.52
2018-08-10T21:01:25.349Z,1.55
2018-08-10T21:03:56.232Z,2.92
2018-08-10T21:06:27.150Z,2.22
2018-08-10T21:08:58.309Z,4.85
2018-08-10T21:11:29.028Z,4.12
2018-08-10T21:14:00.064Z,3.13
2018-08-10T21:16:30.346Z,1.85
2018-08-10T21:19:01.454Z,2.15
2018-08-10T21:21:32.347Z,2.52
2018-08-10T21:24:03.349Z,3.33
2018-08-10T21:26:34.236Z,4.85
2018-08-10T21:29:05.253Z,5.20
2018-08-10T21:31:35.833Z,3.45
2018-08-10T21:34:06.616Z,2.85
2018-08-10T21:36:37.201Z,3.27
2018-08-10T21:39:11.397Z,4.55
2018-08-10T21:41:41.426Z,4.37
2018-08-10T21:44:11.712Z,2.83
2018-08-10T21:46:41.683Z,9.70
2018-08-10T21:49:12.276Z,6.25
2018-08-10T21:51:43.012Z,5.28
2018-08-10T21:54:14.381Z,5.26
2018-08-10T21:56:45.050Z,3.37
2018-08-10T21:59:16.102Z,4.65
2018-08-10T22:01:46.974Z,3.35
2018-08-10T22:04:18.930Z,4.60
2018-08-10T22:06:49.392Z,3.64
2018-08-10T22:09:20.373Z,2.87
2018-08-10T22:11:57.439Z,3.08
2018-08-10T22:14:33.105Z,2.90
2018-08-10T22:18:10.806Z,2.50
2018-08-10T22:20:40.852Z,2.90
2018-08-10T22:23:10.756Z,3.03
2018-08-10T22:25:40.744Z,5.20
2018-08-10T22:28:10.691Z,4.47
2018-08-10T22:30:40.660Z,5.23
2018-08-10T22:33:10.992Z,5.95
2018-08-10T22:35:41.777Z,6.87
2018-08-10T22:38:12.394Z,4.87
2018-08-10T22:40:42.944Z,5.97
2018-08-10T22:43:13.352Z,4.93
2018-08-10T22:45:44.443Z,6.40
2018-08-10T22:48:14.960Z,4.10
2018-08-10T22:50:44.837Z,4.00
2018-08-10T22:53:14.820Z,4.97
2018-08-10T22:55:44.794Z,4.50
2018-08-10T22:58:15.138Z,3.53
2018-08-10T23:00:45.132Z,2.27
2018-08-10T23:03:14.952Z,2.13
2018-08-10T23:05:45.081Z,1.70
2018-08-10T23:08:15.498Z,2.03
2018-08-10T23:10:45.568Z,3.83
2018-08-10T23:13:15.649Z,1.70
2018-08-10T23:15:45.587Z,1.80
2018-08-10T23:18:15.642Z,1.83
2018-08-10T23:20:45.672Z,3.80
2018-08-10T23:23:18.728Z,2.00
2018-08-10T23:25:48.610Z,5.50
2018-08-10T23:28:18.735Z,2.13
2018-08-10T23:30:48.600Z,3.27
2018-08-10T23:33:18.957Z,2.53
2018-08-10T23:35:49.018Z,3.00
2018-08-10T23:38:18.877Z,3.67
2018-08-10T23:40:49.276Z,3.53
2018-08-10T23:43:19.401Z,2.67
2018-08-10T23:45:49.668Z,4.62
2018-08-10T23:48:19.612Z,6.33
2018-08-10T23:50:49.855Z,4.43
2018-08-10T23:53:19.720Z,8.80
2018-08-10T23:55:49.716Z,3.90
2018-08-10T23:58:19.659Z,2.50
